Time;durP1;ratioP1;P1;durP2;ratioP2;P2;SDS_P1;SDS_P2;PMS_P1;PMS_P2;Temp;Humidity;BMP_temperature;BMP_pressure;BME280_temperature;BME280_humidity;BME280_pressure;Samples;Min_cycle;Max_cycle;Signal;HPM_P1;HPM_P2
2022/12/08 00:01:13;;;;;;;9.03;6.97;;;;;;;1.89;100.00;97722.53;5095614;28;20698;-72
2022/12/08 00:03:39;;;;;;;8.43;6.80;;;;;;;1.90;100.00;97718.91;5095631;28;20204;-72
2022/12/08 00:11:41;;;;;;;7.30;6.50;;;;;;;1.89;100.00;97712.03;5095553;28;20210;-72
2022/12/08 00:14:07;;;;;;;8.90;6.73;;;;;;;1.88;100.00;97711.22;5095400;28;20204;-72
2022/12/08 00:16:33;;;;;;;9.43;6.93;;;;;;;1.94;100.00;97710.50;5095474;28;20204;-72
2022/12/08 00:19:00;;;;;;;9.27;6.70;;;;;;;1.91;100.00;97704.81;5095310;28;20200;-72
2022/12/08 00:21:26;;;;;;;7.63;6.70;;;;;;;1.90;100.00;97705.81;5095318;28;20227;-72
2022/12/08 00:23:55;;;;;;;8.17;6.07;;;;;;;1.90;100.00;97703.97;5095236;28;20210;-72
2022/12/08 00:26:21;;;;;;;7.87;6.37;;;;;;;1.97;100.00;97712.81;5095478;28;20200;-72
2022/12/08 00:28:48;;;;;;;7.33;6.57;;;;;;;1.98;100.00;97700.53;5095140;28;20689;-72
2022/12/08 00:31:14;;;;;;;8.03;6.23;;;;;;;1.97;100.00;97696.25;5094993;28;20230;-72
2022/12/08 00:33:41;;;;;;;7.93;6.73;;;;;;;1.87;100.00;97703.53;5095073;28;20206;-72
2022/12/08 00:36:12;;;;;;;7.93;6.27;;;;;;;1.77;100.00;97692.44;5095308;28;20573;-72
2022/12/08 00:38:40;;;;;;;7.57;6.53;;;;;;;1.71;100.00;97686.09;5095276;28;20207;-72
2022/12/08 00:41:14;;;;;;;6.90;5.80;;;;;;;1.59;100.00;97692.72;5095171;28;20578;-72
2022/12/08 00:43:41;;;;;;;6.40;5.73;;;;;;;1.54;100.00;97692.41;5094841;28;20670;-72
2022/12/08 00:46:08;;;;;;;8.27;6.47;;;;;;;1.39;100.00;97683.63;5095072;28;20200;-72
2022/12/08 00:48:34;;;;;;;9.53;7.00;;;;;;;1.25;100.00;97680.91;5094946;28;20291;-72
2022/12/08 00:51:00;;;;;;;8.20;6.67;;;;;;;1.23;100.00;97682.91;5094723;28;20234;-72
2022/12/08 00:53:27;;;;;;;7.37;6.57;;;;;;;1.18;100.00;97690.44;5094647;28;20204;-71
2022/12/08 00:55:53;;;;;;;7.73;6.40;;;;;;;1.13;100.00;97679.66;5094526;28;20681;-72
2022/12/08 00:58:20;;;;;;;7.17;6.47;;;;;;;1.13;100.00;97677.84;5094538;28;20675;-72
2022/12/08 01:00:46;;;;;;;8.20;6.80;;;;;;;1.06;100.00;97678.69;5094704;28;20227;-72
2022/12/08 01:03:13;;;;;;;7.30;6.50;;;;;;;0.97;100.00;97685.78;5094599;28;20228;-72
2022/12/08 01:05:39;;;;;;;6.83;5.43;;;;;;;0.89;100.00;97690.22;5094716;28;20210;-72
2022/12/08 01:08:07;;;;;;;7.27;6.00;;;;;;;0.88;100.00;97678.94;5094249;28;20210;-72
2022/12/08 01:10:37;;;;;;;8.73;7.00;;;;;;;1.03;100.00;97674.63;5094563;28;20199;-72
2022/12/08 01:13:04;;;;;;;7.90;6.90;;;;;;;0.93;100.00;97679.22;5094276;28;20202;-72
2022/12/08 01:15:30;;;;;;;7.93;6.37;;;;;;;0.93;100.00;97670.56;5094454;28;20200;-72
2022/12/08 01:17:57;;;;;;;8.43;6.83;;;;;;;0.82;100.00;97673.53;5094467;28;20199;-72
2022/12/08 01:20:23;;;;;;;12.17;7.60;;;;;;;0.84;100.00;97682.84;5094317;28;20214;-72
2022/12/08 01:22:50;;;;;;;7.93;6.77;;;;;;;0.70;100.00;97678.31;5094285;28;20227;-71
2022/12/08 01:25:16;;;;;;;9.03;7.17;;;;;;;0.70;100.00;97680.09;5094348;28;20207;-72
2022/12/08 01:27:42;;;;;;;8.07;6.63;;;;;;;0.55;100.00;97676.53;5094007;28;20203;-72
2022/12/08 01:30:09;;;;;;;8.57;7.67;;;;;;;0.63;100.00;97687.78;5094247;28;20244;-72
2022/12/08 01:32:36;;;;;;;8.47;7.20;;;;;;;0.65;100.00;97687.63;5094206;28;20224;-72
2022/12/08 01:35:02;;;;;;;9.83;7.63;;;;;;;0.56;100.00;97683.41;5093843;28;20261;-71
2022/12/08 01:37:29;;;;;;;10.03;7.23;;;;;;;0.59;100.00;97683.06;5094167;28;20212;-72
2022/12/08 01:39:56;;;;;;;9.23;8.30;;;;;;;0.62;100.00;97687.97;5094123;28;20206;-72
2022/12/08 01:42:24;;;;;;;8.03;7.10;;;;;;;0.55;100.00;97681.78;5093634;28;20755;-72
2022/12/08 01:45:00;;;;;;;9.77;7.17;;;;;;;0.67;100.00;97677.84;5094030;28;20210;-72
2022/12/08 01:47:35;;;;;;;9.50;8.03;;;;;;;0.61;100.00;97675.88;5093993;28;20203;-72
2022/12/08 01:50:04;;;;;;;9.27;7.20;;;;;;;0.66;100.00;97676.19;5093997;28;20194;-72
2022/12/08 01:52:38;;;;;;;8.43;7.37;;;;;;;0.65;100.00;97671.94;5093512;28;20224;-72
2022/12/08 01:55:11;;;;;;;8.57;6.50;;;;;;;0.59;100.00;97668.22;5093946;28;20199;-72
2022/12/08 01:57:43;;;;;;;9.37;7.23;;;;;;;0.56;100.00;97675.56;5093747;28;20195;-72
2022/12/08 02:00:13;;;;;;;8.30;6.80;;;;;;;0.44;100.00;97671.66;5093892;28;20192;-72
2022/12/08 02:02:59;;;;;;;8.33;6.67;;;;;;;0.43;100.00;97667.38;5093622;28;20242;-72
2022/12/08 02:05:29;;;;;;;7.73;6.80;;;;;;;0.41;100.00;97658.91;5093714;28;20194;-72
2022/12/08 02:07:57;;;;;;;7.87;5.93;;;;;;;0.19;100.00;97658.59;5093761;28;20241;-72
2022/12/08 02:10:28;;;;;;;8.33;6.40;;;;;;;0.15;100.00;97659.09;5093343;28;20689;-72
2022/12/08 02:12:58;;;;;;;7.10;6.37;;;;;;;0.10;100.00;97654.34;5093423;28;20184;-72
2022/12/08 02:15:37;;;;;;;7.53;6.07;;;;;;;0.14;100.00;97650.44;5093675;28;20295;-72
2022/12/08 02:18:39;;;;;;;7.97;6.50;;;;;;;0.05;100.00;97654.03;5075407;28;20646;-72
2022/12/08 02:21:20;;;;;;;7.40;5.70;;;;;;;0.08;100.00;97645.88;5093509;28;20234;-72
2022/12/08 02:23:59;;;;;;;7.13;6.30;;;;;;;0.06;100.00;97633.94;5093507;28;20246;-72
2022/12/08 02:26:45;;;;;;;8.43;6.23;;;;;;;0.10;100.00;97635.25;5093619;28;20192;-72
2022/12/08 02:29:24;;;;;;;8.23;6.83;;;;;;;0.07;100.00;97635.56;5052361;28;20211;-72
2022/12/08 02:32:12;;;;;;;8.50;6.77;;;;;;;0.08;100.00;97632.78;5093417;28;20234;-71
2022/12/08 02:34:45;;;;;;;8.27;6.70;;;;;;;0.12;100.00;97616.78;5093567;28;20188;-72
2022/12/08 02:37:26;;;;;;;8.10;6.70;;;;;;;0.08;100.00;97617.13;5093501;28;20198;-72
2022/12/08 02:40:06;;;;;;;7.83;6.60;;;;;;;0.13;100.00;97611.38;5093184;28;20198;-72
2022/12/08 02:42:41;;;;;;;6.90;6.20;;;;;;;0.18;100.00;97617.75;5075041;28;20227;-71
2022/12/08 02:45:14;;;;;;;9.73;6.97;;;;;;;0.14;100.00;97616.44;5093454;28;20191;-72
2022/12/08 02:47:41;;;;;;;8.40;6.93;;;;;;;0.07;100.00;97622.50;5093605;28;20196;-72
2022/12/08 02:50:08;;;;;;;7.53;6.67;;;;;;;0.08;100.00;97617.13;5093052;28;20208;-72
2022/12/08 02:52:34;;;;;;;7.40;5.97;;;;;;;0.11;100.00;97615.97;5092960;28;20293;-72
2022/12/08 02:55:09;;;;;;;8.23;6.57;;;;;;;0.06;100.00;97613.84;5092997;28;20212;-72
2022/12/08 02:57:57;;;;;;;7.43;6.20;;;;;;;0.08;100.00;97616.28;5093360;28;20188;-72
2022/12/08 03:00:27;;;;;;;9.93;7.17;;;;;;;0.08;100.00;97618.91;5093197;28;20204;-72
2022/12/08 03:03:19;;;;;;;7.37;5.67;;;;;;;-0.01;100.00;97612.03;5093352;28;20216;-72
2022/12/08 03:06:05;;;;;;;8.60;6.53;;;;;;;-0.03;100.00;97612.19;5077349;28;20204;-72
2022/12/08 03:08:48;;;;;;;7.93;6.20;;;;;;;-0.05;100.00;97619.41;5075130;28;20195;-71
2022/12/08 03:11:42;;;;;;;6.87;6.17;;;;;;;-0.04;100.00;97607.16;5093119;28;20277;-72
2022/12/08 03:14:14;;;;;;;7.53;6.20;;;;;;;-0.11;100.00;97611.41;5084629;28;20207;-72
2022/12/08 03:16:43;;;;;;;7.27;6.13;;;;;;;-0.15;100.00;97610.91;5094139;28;20188;-72
2022/12/08 03:19:16;;;;;;;9.57;6.13;;;;;;;-0.25;100.00;97605.03;5096814;28;20242;-72
2022/12/08 03:21:46;;;;;;;8.43;6.00;;;;;;;-0.22;100.00;97604.69;5097146;28;20289;-72
2022/12/08 03:24:14;;;;;;;6.93;6.23;;;;;;;-0.25;100.00;97599.00;5096598;28;20234;-72
2022/12/08 03:26:50;;;;;;;7.57;6.00;;;;;;;-0.23;100.00;97594.41;5096646;28;20212;-72
2022/12/08 03:29:17;;;;;;;8.57;5.93;;;;;;;-0.25;100.00;97591.16;5096571;28;20325;-72
2022/12/08 03:31:53;;;;;;;7.90;5.83;;;;;;;-0.32;100.00;97582.31;5096164;28;20230;-72
2022/12/08 03:34:23;;;;;;;7.80;5.97;;;;;;;-0.29;100.00;97587.22;5096206;28;20192;-72
2022/12/08 03:36:50;;;;;;;9.07;5.93;;;;;;;-0.31;100.00;97589.22;5096295;28;20200;-72
2022/12/08 03:39:16;;;;;;;8.33;6.20;;;;;;;-0.30;100.00;97586.41;5096208;28;20314;-72
2022/12/08 03:41:43;;;;;;;6.67;5.93;;;;;;;-0.22;100.00;97593.47;5096145;28;20228;-72
2022/12/08 03:44:09;;;;;;;6.27;5.67;;;;;;;-0.21;100.00;97587.25;5096226;28;20223;-72
2022/12/08 03:46:35;;;;;;;7.83;6.33;;;;;;;-0.19;100.00;97580.03;5096163;28;20199;-72
2022/12/08 03:49:02;;;;;;;8.70;5.97;;;;;;;-0.26;100.00;97581.69;5096181;28;20204;-72
2022/12/08 03:51:28;;;;;;;7.23;6.17;;;;;;;-0.28;100.00;97579.25;5095693;28;20732;-71
2022/12/08 03:53:55;;;;;;;7.77;5.90;;;;;;;-0.31;100.00;97571.72;5095895;28;20295;-72
2022/12/08 03:56:30;;;;;;;6.60;5.90;;;;;;;-0.30;100.00;97575.16;5096017;28;20200;-72
2022/12/08 03:58:57;;;;;;;7.97;6.23;;;;;;;-0.34;100.00;97571.25;5096073;28;20207;-72
2022/12/08 04:01:23;;;;;;;7.37;6.23;;;;;;;-0.33;100.00;97575.47;5095931;28;20456;-72
2022/12/08 04:03:50;;;;;;;9.03;6.93;;;;;;;-0.38;100.00;97562.94;5095478;28;20220;-71
2022/12/08 04:06:17;;;;;;;7.77;6.37;;;;;;;-0.46;100.00;97565.53;5095519;28;20443;-72
2022/12/08 04:08:43;;;;;;;8.73;6.37;;;;;;;-0.38;100.00;97562.94;5096370;28;20207;-72
2022/12/08 04:11:11;;;;;;;8.73;6.53;;;;;;;-0.37;100.00;97556.72;5095715;28;20226;-72
2022/12/08 04:13:39;;;;;;;8.23;6.63;;;;;;;-0.45;100.00;97561.94;5095698;28;20196;-72
2022/12/08 04:16:06;;;;;;;7.60;6.50;;;;;;;-0.47;100.00;97563.91;5096380;28;20485;-72
2022/12/08 04:18:33;;;;;;;10.17;7.13;;;;;;;-0.39;100.00;97565.69;5095548;28;20581;-72
2022/12/08 04:20:59;;;;;;;7.73;6.73;;;;;;;-0.38;100.00;97552.47;5095323;28;20246;-72
2022/12/08 04:23:26;;;;;;;8.47;7.00;;;;;;;-0.41;100.00;97546.75;5095433;28;20224;-72
2022/12/08 04:25:53;;;;;;;8.40;6.67;;;;;;;-0.44;100.00;97547.88;5095185;28;20670;-72
2022/12/08 04:28:19;;;;;;;9.43;6.67;;;;;;;-0.41;100.00;97559.81;5094172;28;20210;-72
2022/12/08 04:30:48;;;;;;;9.40;6.90;;;;;;;-0.40;100.00;97551.00;5095068;28;20703;-71
2022/12/08 04:33:14;;;;;;;7.93;6.73;;;;;;;-0.52;100.00;97553.13;5095108;28;20210;-72
2022/12/08 04:35:41;;;;;;;8.27;6.87;;;;;;;-0.50;100.00;97550.34;5094526;28;20689;-71
2022/12/08 04:38:07;;;;;;;7.87;6.13;;;;;;;-0.48;100.00;97557.06;5094907;28;20208;-72
2022/12/08 04:40:33;;;;;;;8.60;6.83;;;;;;;-0.56;100.00;97551.81;5094911;28;20436;-72
2022/12/08 04:43:00;;;;;;;8.07;6.60;;;;;;;-0.55;100.00;97550.00;5094918;28;20224;-72
2022/12/08 04:45:26;;;;;;;8.97;7.17;;;;;;;-0.58;100.00;97550.34;5094558;28;20671;-72
2022/12/08 04:47:52;;;;;;;9.10;7.00;;;;;;;-0.50;100.00;97547.72;5094782;28;20199;-71
2022/12/08 04:50:19;;;;;;;9.83;7.70;;;;;;;-0.47;100.00;97540.41;5094723;28;20207;-72
2022/12/08 04:52:45;;;;;;;9.33;6.97;;;;;;;-0.45;100.00;97535.03;5094519;28;20207;-72
2022/12/08 04:55:12;;;;;;;10.00;7.40;;;;;;;-0.45;100.00;97535.81;5094739;28;20303;-72
2022/12/08 04:57:38;;;;;;;10.10;7.00;;;;;;;-0.48;100.00;97538.78;5094383;28;20662;-72
2022/12/08 05:00:06;;;;;;;8.07;6.87;;;;;;;-0.48;100.00;97544.00;5094355;28;20570;-72
2022/12/08 05:02:32;;;;;;;8.53;6.90;;;;;;;-0.45;100.00;97528.00;5094435;28;20307;-72
2022/12/08 05:04:59;;;;;;;8.40;7.17;;;;;;;-0.55;100.00;97535.16;5094052;28;20446;-71
2022/12/08 05:07:25;;;;;;;10.37;7.33;;;;;;;-0.52;100.00;97527.03;5094040;28;20298;-72
2022/12/08 05:09:52;;;;;;;11.23;7.60;;;;;;;-0.55;100.00;97529.13;5094315;28;20210;-72
2022/12/08 05:12:18;;;;;;;10.33;7.60;;;;;;;-0.55;100.00;97526.50;5094252;28;20314;-71
2022/12/08 05:14:46;;;;;;;9.57;7.33;;;;;;;-0.56;100.00;97524.88;5094295;28;20531;-72
2022/12/08 05:17:13;;;;;;;8.93;7.27;;;;;;;-0.51;100.00;97522.59;5094358;28;20293;-72
2022/12/08 05:19:39;;;;;;;7.90;6.97;;;;;;;-0.50;100.00;97525.06;5093925;28;20441;-71
2022/12/08 05:22:06;;;;;;;9.00;7.20;;;;;;;-0.54;100.00;97525.56;5094009;28;20456;-71
2022/12/08 05:24:32;;;;;;;10.47;7.40;;;;;;;-0.59;100.00;97519.97;5093765;28;20227;-71
2022/12/08 05:26:58;;;;;;;9.87;7.57;;;;;;;-0.54;100.00;97518.53;5093708;28;20451;-71
2022/12/08 05:29:25;;;;;;;9.47;7.33;;;;;;;-0.54;100.00;97521.13;5094095;28;20207;-72
2022/12/08 05:31:51;;;;;;;10.33;7.37;;;;;;;-0.53;100.00;97511.53;5093755;28;20318;-72
2022/12/08 05:34:18;;;;;;;10.13;7.03;;;;;;;-0.55;100.00;97521.28;5093921;28;20290;-71
2022/12/08 05:36:44;;;;;;;10.37;7.20;;;;;;;-0.55;100.00;97522.13;5093752;28;20207;-71
2022/12/08 05:39:14;;;;;;;11.53;7.70;;;;;;;-0.59;100.00;97526.03;5093327;28;20242;-71
2022/12/08 05:41:45;;;;;;;12.20;7.70;;;;;;;-0.56;100.00;97530.94;5093224;28;20628;-71
2022/12/08 05:44:11;;;;;;;9.50;7.37;;;;;;;-0.63;100.00;97532.53;5092870;28;20212;-71
2022/12/08 05:46:38;;;;;;;10.00;7.57;;;;;;;-0.64;100.00;97533.53;5093583;28;20214;-71
2022/12/08 05:49:04;;;;;;;12.00;7.30;;;;;;;-0.60;100.00;97529.63;5093265;28;20692;-71
2022/12/08 05:51:31;;;;;;;12.40;8.13;;;;;;;-0.55;100.00;97526.50;5093303;28;20235;-71
2022/12/08 05:53:57;;;;;;;12.03;8.03;;;;;;;-0.54;100.00;97523.75;5093554;28;20203;-72
2022/12/08 05:56:24;;;;;;;9.67;7.63;;;;;;;-0.47;100.00;97527.34;5093275;28;20226;-72
2022/12/08 05:58:51;;;;;;;10.40;7.57;;;;;;;-0.53;100.00;97522.75;5093217;28;20212;-72
2022/12/08 06:01:28;;;;;;;9.07;7.30;;;;;;;-0.60;100.00;97516.56;5093209;28;20230;-72
2022/12/08 06:03:56;;;;;;;10.63;7.17;;;;;;;-0.63;100.00;97519.50;5093850;28;20207;-72
2022/12/08 06:06:23;;;;;;;11.30;7.27;;;;;;;-0.60;100.00;97513.97;5093029;28;20204;-72
2022/12/08 06:08:49;;;;;;;9.93;7.00;;;;;;;-0.65;100.00;97515.41;5092862;28;20301;-72
2022/12/08 06:11:21;;;;;;;11.40;7.30;;;;;;;-0.64;100.00;97517.03;5092475;28;20230;-72
2022/12/08 06:13:51;;;;;;;9.83;6.70;;;;;;;-0.70;100.00;97517.69;5092555;28;20206;-71
2022/12/08 06:16:18;;;;;;;9.77;7.20;;;;;;;-0.72;100.00;97512.63;5092778;28;20447;-71
2022/12/08 06:18:47;;;;;;;9.73;6.60;;;;;;;-0.64;100.00;97510.03;5092932;28;20200;-71
2022/12/08 06:21:15;;;;;;;12.23;7.40;;;;;;;-0.69;100.00;97509.72;5093137;28;20470;-71
2022/12/08 06:23:42;;;;;;;10.80;7.17;;;;;;;-0.68;100.00;97508.72;5092699;28;20223;-71
2022/12/08 06:26:14;;;;;;;9.80;6.87;;;;;;;-0.71;100.00;97513.47;5092002;28;20208;-71
2022/12/08 06:28:42;;;;;;;10.90;7.27;;;;;;;-0.75;100.00;97514.78;5092740;28;20206;-71
2022/12/08 06:31:11;;;;;;;10.80;7.97;;;;;;;-0.77;100.00;97514.91;5092850;28;20220;-71
2022/12/08 06:33:38;;;;;;;9.27;7.27;;;;;;;-0.74;100.00;97522.44;5092282;28;20200;-71
2022/12/08 06:36:06;;;;;;;9.97;7.13;;;;;;;-0.75;100.00;97514.78;5092470;28;20203;-71
2022/12/08 06:38:33;;;;;;;11.80;7.77;;;;;;;-0.78;100.00;97521.13;5092758;28;20204;-71
2022/12/08 06:41:00;;;;;;;12.10;8.10;;;;;;;-0.83;100.00;97512.97;5092360;28;20323;-71
2022/12/08 06:43:27;;;;;;;11.67;7.60;;;;;;;-0.74;100.00;97519.84;5092901;28;20224;-71
2022/12/08 06:45:53;;;;;;;10.43;7.70;;;;;;;-0.70;100.00;97520.31;5092416;28;20621;-71
2022/12/08 06:48:20;;;;;;;10.27;7.30;;;;;;;-0.71;100.00;97518.69;5092974;28;20208;-71
2022/12/08 06:50:46;;;;;;;11.67;8.10;;;;;;;-0.71;100.00;97524.72;5092754;28;20245;-71
2022/12/08 06:53:13;;;;;;;11.50;8.30;;;;;;;-0.68;100.00;97521.78;5096680;28;20564;-71
2022/12/08 06:55:48;;;;;;;12.07;7.60;;;;;;;-0.62;100.00;97528.97;5096637;28;20215;-71
2022/12/08 06:58:15;;;;;;;10.17;7.50;;;;;;;-0.69;100.00;97530.59;5096436;28;20201;-71
2022/12/08 07:00:41;;;;;;;10.20;7.57;;;;;;;-0.71;100.00;97521.31;5096073;28;20274;-71
2022/12/08 07:03:09;;;;;;;12.53;7.47;;;;;;;-0.72;100.00;97528.28;5096437;28;20204;-71
2022/12/08 07:05:37;;;;;;;10.60;7.83;;;;;;;-0.69;100.00;97517.53;5096257;28;20728;-71
2022/12/08 07:08:05;;;;;;;10.33;7.73;;;;;;;-0.68;100.00;97523.56;5096655;28;20204;-71
2022/12/08 07:10:32;;;;;;;10.67;7.73;;;;;;;-0.67;100.00;97530.44;5095686;28;20204;-71
2022/12/08 07:12:59;;;;;;;10.40;7.67;;;;;;;-0.71;100.00;97529.13;5095952;28;20435;-71
2022/12/08 07:15:25;;;;;;;10.57;8.13;;;;;;;-0.69;100.00;97532.38;5096502;28;20436;-72
2022/12/08 07:17:51;;;;;;;10.87;7.70;;;;;;;-0.65;100.00;97531.91;5095789;28;20216;-71
2022/12/08 07:20:18;;;;;;;14.30;8.13;;;;;;;-0.70;100.00;97536.81;5095981;28;20211;-73
2022/12/08 07:22:52;;;;;;;11.27;7.50;;;;;;;-0.72;100.00;97533.53;5095757;28;20211;-71
2022/12/08 07:25:19;;;;;;;12.33;7.53;;;;;;;-0.70;100.00;97528.97;5096023;28;20208;-71
2022/12/08 07:27:46;;;;;;;10.70;7.57;;;;;;;-0.66;100.00;97527.66;5096020;28;20206;-72
2022/12/08 07:30:13;;;;;;;12.33;8.23;;;;;;;-0.64;100.00;97527.47;5095574;28;20255;-72
2022/12/08 07:32:40;;;;;;;9.80;7.60;;;;;;;-0.71;100.00;97532.53;5095560;28;20227;-72
2022/12/08 07:35:08;;;;;;;11.80;7.80;;;;;;;-0.63;100.00;97526.53;5095530;28;20199;-72
2022/12/08 07:37:36;;;;;;;9.13;7.10;;;;;;;-0.59;100.00;97533.03;5095764;28;20200;-71
2022/12/08 07:40:03;;;;;;;12.13;8.40;;;;;;;-0.54;100.00;97528.16;5095542;28;20206;-71
2022/12/08 07:42:29;;;;;;;10.30;7.70;;;;;;;-0.48;100.00;97528.34;5095750;28;20223;-72
2022/12/08 07:44:56;;;;;;;8.63;7.13;;;;;;;-0.50;100.00;97532.06;5095269;28;20322;-72
2022/12/08 07:47:22;;;;;;;15.17;8.73;;;;;;;-0.49;100.00;97531.91;5094974;28;20671;-72
2022/12/08 07:49:49;;;;;;;10.77;8.93;;;;;;;-0.44;100.00;97532.22;5095493;28;20214;-71
2022/12/08 07:52:15;;;;;;;11.53;8.00;;;;;;;-0.41;100.00;97531.06;5095089;28;20715;-72
2022/12/08 07:54:41;;;;;;;15.00;8.80;;;;;;;-0.35;100.00;97533.06;5095315;28;20432;-71
2022/12/08 07:57:08;;;;;;;13.53;8.67;;;;;;;-0.29;100.00;97533.22;5094889;28;20448;-71
2022/12/08 07:59:35;;;;;;;11.03;8.17;;;;;;;-0.32;100.00;97525.69;5095454;28;20705;-71
2022/12/08 08:02:01;;;;;;;10.97;8.33;;;;;;;-0.28;100.00;97520.97;5095337;28;20604;-72
2022/12/08 08:04:27;;;;;;;9.37;7.73;;;;;;;-0.28;100.00;97527.00;5095085;28;20769;-71
2022/12/08 08:06:54;;;;;;;11.80;8.03;;;;;;;-0.23;100.00;97522.09;5095209;28;20216;-72
2022/12/08 08:09:20;;;;;;;13.73;7.97;;;;;;;-0.23;100.00;97518.66;5095246;28;20204;-71
2022/12/08 08:11:47;;;;;;;13.00;7.83;;;;;;;-0.23;100.00;97519.50;5095248;28;20250;-71
2022/12/08 08:14:13;;;;;;;12.90;7.87;;;;;;;-0.23;100.00;97516.88;5095457;28;20203;-71
2022/12/08 08:16:45;;;;;;;10.33;7.97;;;;;;;-0.15;100.00;97513.44;5095473;28;20211;-71
2022/12/08 08:19:11;;;;;;;11.17;8.23;;;;;;;-0.19;100.00;97514.75;5094917;28;20667;-71
2022/12/08 08:21:38;;;;;;;9.87;7.30;;;;;;;-0.07;100.00;97516.03;5095114;28;20230;-71
2022/12/08 08:24:04;;;;;;;12.00;7.57;;;;;;;-0.10;100.00;97521.59;5095004;28;20224;-72
2022/12/08 08:26:31;;;;;;;10.67;7.77;;;;;;;-0.12;100.00;97511.31;5095040;28;20200;-71
2022/12/08 08:28:57;;;;;;;11.47;8.10;;;;;;;0.03;100.00;97508.03;5094950;28;20204;-71
2022/12/08 08:31:27;;;;;;;12.07;8.37;;;;;;;0.01;100.00;97511.63;5094973;28;20230;-71
2022/12/08 08:33:53;;;;;;;13.07;8.70;;;;;;;0.09;100.00;97509.00;5095136;28;20202;-71
2022/12/08 08:36:20;;;;;;;11.60;8.07;;;;;;;0.13;100.00;97511.28;5095067;28;20214;-71
2022/12/08 08:38:47;;;;;;;12.33;8.47;;;;;;;0.18;100.00;97509.78;5094782;28;20207;-71
2022/12/08 08:41:13;;;;;;;13.90;8.50;;;;;;;0.08;100.00;97511.75;5095135;28;20545;-71
2022/12/08 08:43:40;;;;;;;12.70;8.03;;;;;;;0.14;100.00;97511.91;5095210;28;20230;-71
2022/12/08 08:46:07;;;;;;;11.47;8.73;;;;;;;0.19;100.00;97516.66;5094807;28;20299;-71
2022/12/08 08:48:34;;;;;;;14.67;9.23;;;;;;;0.26;100.00;97525.44;5094697;28;20200;-72
2022/12/08 08:51:08;;;;;;;14.47;9.47;;;;;;;0.33;100.00;97513.34;5094244;28;20235;-71
2022/12/08 08:53:35;;;;;;;12.87;8.67;;;;;;;0.34;100.00;97512.34;5094437;28;20204;-71
2022/12/08 08:56:03;;;;;;;13.73;8.80;;;;;;;0.32;100.00;97509.91;5094689;28;20203;-71
2022/12/08 08:58:30;;;;;;;12.80;9.00;;;;;;;0.37;100.00;97519.88;5094466;28;20216;-71
2022/12/08 09:00:56;;;;;;;11.53;8.63;;;;;;;0.47;100.00;97519.66;5094431;28;20224;-71
2022/12/08 09:03:23;;;;;;;13.60;8.63;;;;;;;0.50;100.00;97509.69;5094293;28;20200;-71
2022/12/08 09:05:50;;;;;;;10.77;8.57;;;;;;;0.60;100.00;97514.69;5093870;28;20678;-71
2022/12/08 09:08:17;;;;;;;9.80;8.40;;;;;;;0.65;100.00;97499.31;5094109;28;20218;-71
2022/12/08 09:10:43;;;;;;;12.80;8.50;;;;;;;0.78;100.00;97505.63;5094301;28;20220;-71
2022/12/08 09:13:09;;;;;;;11.07;8.40;;;;;;;0.83;100.00;97499.88;5093981;28;20291;-71
2022/12/08 09:15:36;;;;;;;11.17;8.53;;;;;;;0.91;100.00;97505.91;5094063;28;20200;-71
2022/12/08 09:18:02;;;;;;;11.80;8.37;;;;;;;0.96;100.00;97503.56;5093961;28;20260;-72
2022/12/08 09:20:29;;;;;;;12.60;8.03;;;;;;;1.03;100.00;97496.66;5093742;28;20203;-71
2022/12/08 09:22:55;;;;;;;12.00;8.33;;;;;;;1.07;100.00;97495.31;5093934;28;20204;-71
2022/12/08 09:25:21;;;;;;;12.10;7.73;;;;;;;1.13;100.00;97489.38;5093989;28;20232;-71
2022/12/08 09:27:48;;;;;;;16.33;10.47;;;;;;;1.20;100.00;97485.09;5093760;28;20204;-72
2022/12/08 09:30:14;;;;;;;13.17;8.73;;;;;;;1.23;100.00;97487.38;5093993;28;20204;-73
2022/12/08 09:32:40;;;;;;;12.53;8.57;;;;;;;1.31;100.00;97489.09;5093780;28;20232;-72
2022/12/08 09:35:07;;;;;;;11.27;8.23;;;;;;;1.33;100.00;97490.56;5093933;28;20204;-72
2022/12/08 09:37:34;;;;;;;11.00;8.13;;;;;;;1.35;100.00;97491.19;5093882;28;20211;-72
2022/12/08 09:40:00;;;;;;;13.10;8.90;;;;;;;1.41;100.00;97487.06;5093824;28;20226;-73
2022/12/08 09:42:50;;;;;;;12.73;8.47;;;;;;;1.47;100.00;97487.19;5093716;28;20234;-72
2022/12/08 09:45:18;;;;;;;15.93;9.17;;;;;;;1.62;100.00;97484.59;5093502;28;20216;-72
2022/12/08 09:48:05;;;;;;;12.17;8.90;;;;;;;1.56;100.00;97487.91;5093523;28;20208;-73
2022/12/08 09:50:39;;;;;;;14.27;8.77;;;;;;;1.70;100.00;97474.84;5093321;28;20573;-73
2022/12/08 09:53:17;;;;;;;14.37;8.03;;;;;;;1.81;100.00;97474.41;5093695;28;20194;-73
2022/12/08 09:55:51;;;;;;;14.20;8.37;;;;;;;1.88;100.00;97471.91;5093647;28;20206;-72
2022/12/08 09:58:32;;;;;;;12.27;7.77;;;;;;;1.83;100.00;97467.19;5093263;28;20191;-72
2022/12/08 10:00:58;;;;;;;12.43;7.43;;;;;;;1.82;100.00;97472.63;5093414;28;20228;-73
2022/12/08 10:03:27;;;;;;;11.97;8.67;;;;;;;1.85;100.00;97474.91;5093299;28;20200;-72
2022/12/08 10:06:20;;;;;;;9.13;7.77;;;;;;;1.84;100.00;97460.13;5075166;28;20305;-72
2022/12/08 10:09:01;;;;;;;10.80;8.13;;;;;;;1.94;100.00;97460.72;5084426;28;20203;-72
2022/12/08 10:12:03;;;;;;;14.30;8.40;;;;;;;2.07;100.00;97460.91;5093296;28;20263;-72
2022/12/08 10:14:52;;;;;;;13.07;8.43;;;;;;;2.10;100.00;97457.91;5092742;28;20199;-72
2022/12/08 10:17:24;;;;;;;10.00;8.00;;;;;;;2.11;100.00;97447.25;5093416;28;20537;-72
2022/12/08 10:19:59;;;;;;;11.97;7.67;;;;;;;2.24;100.00;97436.13;5093347;28;20191;-72
2022/12/08 10:22:31;;;;;;;10.70;8.43;;;;;;;2.23;100.00;97440.56;5093269;28;20230;-72
2022/12/08 10:25:05;;;;;;;11.20;7.57;;;;;;;2.33;100.00;97448.13;5093100;28;20208;-72
2022/12/08 10:27:35;;;;;;;11.63;7.87;;;;;;;2.48;100.00;97441.09;5097470;28;20188;-72
2022/12/08 10:30:02;;;;;;;12.03;7.83;;;;;;;2.52;100.00;97439.72;5097419;28;20214;-73
2022/12/08 10:32:34;;;;;;;12.50;7.63;;;;;;;2.60;100.00;97437.78;5097163;28;20224;-72
2022/12/08 10:35:14;;;;;;;11.27;8.00;;;;;;;2.77;100.00;97441.00;5097375;28;20257;-73
2022/12/08 10:37:41;;;;;;;8.57;6.73;;;;;;;2.91;99.39;97437.53;5096960;28;20658;-72
2022/12/08 10:40:14;;;;;;;8.53;6.80;;;;;;;3.18;98.42;97434.16;5097170;28;20210;-72
2022/12/08 10:42:45;;;;;;;7.97;6.43;;;;;;;3.20;100.00;97430.34;5097071;28;20224;-72
2022/12/08 10:45:20;;;;;;;10.40;6.77;;;;;;;3.25;99.89;97433.22;5097259;28;20678;-73
2022/12/08 10:48:10;;;;;;;7.73;5.83;;;;;;;3.38;98.52;97428.09;5097066;28;20209;-73
2022/12/08 10:50:45;;;;;;;7.70;5.23;;;;;;;3.48;95.72;97430.41;5067820;28;20204;-73
2022/12/08 10:53:21;;;;;;;8.60;6.03;;;;;;;3.46;95.74;97422.72;5097114;28;20187;-72
2022/12/08 10:55:50;;;;;;;7.43;6.13;;;;;;;3.47;96.94;97420.88;5097027;28;20188;-73
2022/12/08 10:58:25;;;;;;;10.07;6.10;;;;;;;3.54;95.65;97413.88;5096258;28;20718;-73
2022/12/08 11:00:54;;;;;;;7.87;5.67;;;;;;;3.62;92.81;97414.53;5096317;28;20241;-73
2022/12/08 11:03:43;;;;;;;6.80;5.37;;;;;;;3.87;93.02;97407.84;5078409;28;20218;-72
2022/12/08 11:06:23;;;;;;;10.17;5.80;;;;;;;3.65;93.68;97405.47;5040963;28;20244;-72
2022/12/08 11:08:58;;;;;;;7.27;5.73;;;;;;;3.65;92.38;97401.03;5096521;28;20206;-72
2022/12/08 11:11:51;;;;;;;8.40;6.47;;;;;;;3.73;95.11;97390.38;5095953;28;20227;-73
2022/12/08 11:14:25;;;;;;;5.80;4.90;;;;;;;3.78;92.18;97387.16;5096704;28;20188;-72
2022/12/08 11:16:55;;;;;;;5.83;4.57;;;;;;;3.64;90.61;97385.44;5096170;28;20635;-72
2022/12/08 11:19:26;;;;;;;5.57;4.60;;;;;;;3.72;90.60;97377.41;5096504;28;20192;-72
2022/12/08 11:21:52;;;;;;;8.20;4.57;;;;;;;3.64;89.34;97381.00;5096691;28;20718;-72
2022/12/08 11:24:23;;;;;;;8.67;5.20;;;;;;;3.56;90.91;97375.88;5096273;28;20255;-72
2022/12/08 11:26:59;;;;;;;6.57;4.83;;;;;;;3.74;91.44;97372.75;5095903;28;20188;-72
2022/12/08 11:29:28;;;;;;;5.00;4.50;;;;;;;3.67;92.01;97366.66;5096515;28;20196;-73
2022/12/08 11:32:01;;;;;;;7.43;4.77;;;;;;;3.82;89.99;97375.25;5095829;28;20234;-73
2022/12/08 11:34:43;;;;;;;5.63;4.40;;;;;;;3.90;89.46;97357.53;5096587;28;20190;-72
2022/12/08 11:37:25;;;;;;;4.70;4.03;;;;;;;3.99;87.94;97360.78;5095528;28;20198;-72
2022/12/08 11:39:55;;;;;;;5.23;4.43;;;;;;;3.83;87.22;97358.47;5095680;28;20558;-73
2022/12/08 11:42:26;;;;;;;5.43;4.43;;;;;;;3.85;87.87;97359.09;5095649;28;20706;-72
2022/12/08 11:44:58;;;;;;;6.60;4.57;;;;;;;3.99;87.72;97363.41;5096163;28;20681;-72